createdAt,value
2022-11-27T00:00:35.510Z,20.10
2022-11-27T00:03:28.322Z,20.30
2022-11-27T00:06:01.523Z,20.50
2022-11-27T00:08:34.112Z,21.40
2022-11-27T00:11:12.404Z,16.90
2022-11-27T00:13:45.502Z,21.20
2022-11-27T00:16:19.383Z,19.40
2022-11-27T00:18:52.543Z,18.30
2022-11-27T00:21:28.077Z,19.20
2022-11-27T00:24:03.173Z,19.80
2022-11-27T00:26:38.061Z,19.30
2022-11-27T00:29:12.291Z,19.20
2022-11-27T00:31:44.858Z,20.80
2022-11-27T00:34:17.373Z,20.60
2022-11-27T00:36:49.859Z,20.90
2022-11-27T00:39:23.711Z,19.90
2022-11-27T00:41:56.312Z,19.20
2022-11-27T00:44:28.855Z,22.90
2022-11-27T00:47:01.390Z,19.50
2022-11-27T00:49:34.272Z,20.50
2022-11-27T00:52:06.956Z,17.90
2022-11-27T00:54:40.005Z,24.20
2022-11-27T00:57:12.867Z,20.50
2022-11-27T00:59:45.397Z,20.00
2022-11-27T01:02:17.991Z,18.70
2022-11-27T01:04:51.641Z,19.00
2022-11-27T01:07:24.135Z,19.60
2022-11-27T01:09:56.656Z,19.10
2022-11-27T01:12:29.172Z,18.90
2022-11-27T01:15:01.791Z,19.80
2022-11-27T01:17:34.852Z,19.90
2022-11-27T01:20:09.271Z,18.00
2022-11-27T01:22:41.825Z,18.60
2022-11-27T01:25:14.682Z,18.80
2022-11-27T01:27:47.200Z,19.90
2022-11-27T01:30:20.481Z,18.60
2022-11-27T01:32:52.973Z,22.80
2022-11-27T01:35:25.531Z,22.80
2022-11-27T01:37:58.124Z,19.40
2022-11-27T01:40:30.659Z,21.00
2022-11-27T01:43:03.171Z,20.60
2022-11-27T01:45:35.889Z,20.60
2022-11-27T01:48:10.402Z,19.00
2022-11-27T01:50:43.658Z,22.50
2022-11-27T01:53:20.653Z,20.60
2022-11-27T01:55:59.020Z,19.00
2022-11-27T01:58:34.519Z,20.10
2022-11-27T02:01:08.529Z,20.10
2022-11-27T02:03:41.497Z,23.50
2022-11-27T02:06:16.367Z,20.80
2022-11-27T02:08:48.881Z,24.80
2022-11-27T02:11:32.373Z,22.20
2022-11-27T02:14:17.689Z,19.60
2022-11-27T02:16:59.196Z,21.30
2022-11-27T02:20:12.084Z,18.30
2022-11-27T02:23:01.311Z,18.40
2022-11-27T02:25:44.872Z,20.40
2022-11-27T02:28:43.719Z,20.30
2022-11-27T02:31:26.841Z,20.40
2022-11-27T02:34:09.827Z,17.10
2022-11-27T02:36:47.657Z,21.10
2022-11-27T02:39:26.847Z,22.60
2022-11-27T02:42:06.229Z,22.40
2022-11-27T02:44:43.533Z,21.80
2022-11-27T02:47:16.797Z,21.80
2022-11-27T02:49:52.330Z,22.10
2022-11-27T02:52:25.925Z,23.10
2022-11-27T02:55:01.853Z,22.30
2022-11-27T02:57:36.754Z,23.20
2022-11-27T03:00:12.980Z,24.30
2022-11-27T03:02:51.772Z,24.50
2022-11-27T03:05:28.651Z,20.40
2022-11-27T03:08:06.862Z,21.40
2022-11-27T03:10:49.370Z,22.50
2022-11-27T03:13:22.070Z,19.80
2022-11-27T03:16:06.635Z,20.70
2022-11-27T03:18:49.332Z,24.60
2022-11-27T03:21:28.841Z,19.80
2022-11-27T03:24:02.095Z,18.80
2022-11-27T03:26:35.159Z,20.60
2022-11-27T03:29:11.071Z,29.10
2022-11-27T03:31:45.383Z,16.40
2022-11-27T03:34:18.215Z,18.50
2022-11-27T03:36:50.912Z,20.30
2022-11-27T03:39:24.859Z,22.90
2022-11-27T03:42:04.051Z,21.80
2022-11-27T03:44:43.486Z,20.50
2022-11-27T03:47:27.673Z,19.60
2022-11-27T03:50:29.490Z,21.30
2022-11-27T03:53:18.367Z,22.00
2022-11-27T03:56:08.392Z,20.90
2022-11-27T03:58:47.593Z,21.90
2022-11-27T04:01:24.465Z,21.40
2022-11-27T04:03:57.093Z,22.30
2022-11-27T04:06:29.638Z,19.50
2022-11-27T04:09:02.082Z,22.50
2022-11-27T04:11:34.622Z,19.80
2022-11-27T04:14:07.109Z,22.00
2022-11-27T04:16:39.715Z,20.90
2022-11-27T04:19:12.159Z,22.00
2022-11-27T04:21:44.793Z,19.80
2022-11-27T04:24:17.698Z,20.70
2022-11-27T04:26:50.249Z,20.10
2022-11-27T04:29:22.671Z,21.90
2022-11-27T04:31:55.332Z,20.90
2022-11-27T04:34:27.919Z,22.20
2022-11-27T04:37:00.648Z,21.80
2022-11-27T04:39:33.225Z,22.00
2022-11-27T04:42:06.016Z,21.90
2022-11-27T04:44:38.807Z,21.10
2022-11-27T04:47:11.539Z,22.80
2022-11-27T04:49:44.007Z,21.80
2022-11-27T04:52:16.525Z,20.90
2022-11-27T04:54:48.966Z,20.30
2022-11-27T04:57:21.423Z,18.80
2022-11-27T04:59:53.954Z,21.80
2022-11-27T05:02:26.520Z,21.40
2022-11-27T05:04:59.215Z,21.70
2022-11-27T05:07:31.673Z,19.50
2022-11-27T05:10:04.238Z,19.60
2022-11-27T05:12:36.693Z,19.10
2022-11-27T05:15:11.809Z,20.20
2022-11-27T05:17:44.247Z,20.20
2022-11-27T05:20:17.072Z,19.90
2022-11-27T05:22:50.053Z,21.40
2022-11-27T05:25:22.553Z,27.00
2022-11-27T05:27:55.901Z,23.80
2022-11-27T05:30:28.443Z,24.40
2022-11-27T05:33:00.896Z,25.20
2022-11-27T05:35:33.445Z,19.80
2022-11-27T05:38:05.976Z,27.00
2022-11-27T05:40:38.457Z,24.80
2022-11-27T05:43:10.919Z,22.30
2022-11-27T05:45:43.499Z,20.40
2022-11-27T05:48:15.980Z,20.60
2022-11-27T05:50:49.035Z,19.60
2022-11-27T05:53:21.544Z,20.20
2022-11-27T05:55:54.105Z,20.40
2022-11-27T05:58:26.720Z,16.90
2022-11-27T06:00:59.414Z,20.80
2022-11-27T06:03:32.242Z,21.40
2022-11-27T06:06:11.423Z,23.10
2022-11-27T06:08:44.841Z,22.30
2022-11-27T06:11:19.639Z,18.30
2022-11-27T06:13:52.828Z,19.80
2022-11-27T06:16:27.043Z,19.00
2022-11-27T06:19:00.064Z,21.70
2022-11-27T06:21:32.573Z,23.10
2022-11-27T06:24:05.283Z,19.70
2022-11-27T06:26:37.863Z,17.70
2022-11-27T06:29:10.899Z,18.20
2022-11-27T06:31:43.778Z,17.10
2022-11-27T06:34:16.483Z,19.00
2022-11-27T06:36:49.630Z,17.40
2022-11-27T06:39:22.136Z,16.80
2022-11-27T06:41:54.761Z,18.80
2022-11-27T06:44:27.293Z,18.90
2022-11-27T06:46:59.996Z,22.40
2022-11-27T06:49:32.820Z,17.80
2022-11-27T06:52:05.792Z,18.50
2022-11-27T06:54:38.323Z,18.80
2022-11-27T06:57:11.478Z,23.20
2022-11-27T06:59:43.950Z,21.10
2022-11-27T07:02:17.725Z,22.10
2022-11-27T07:04:50.384Z,21.40
2022-11-27T07:07:22.936Z,20.60
2022-11-27T07:09:55.401Z,18.10
2022-11-27T07:12:27.863Z,19.70
2022-11-27T07:15:04.016Z,23.20
2022-11-27T07:17:38.171Z,18.30
2022-11-27T07:20:12.927Z,20.00
2022-11-27T07:22:45.394Z,19.20
2022-11-27T07:25:17.996Z,16.90
2022-11-27T07:27:50.589Z,18.40
2022-11-27T07:30:23.535Z,18.80
2022-11-27T07:32:56.066Z,17.90
2022-11-27T07:35:28.577Z,16.90
2022-11-27T07:38:01.016Z,19.00
2022-11-27T07:40:33.629Z,17.00
2022-11-27T07:43:06.092Z,21.60
2022-11-27T07:45:38.594Z,21.20
2022-11-27T07:48:11.298Z,21.00
2022-11-27T07:50:44.779Z,19.50
2022-11-27T07:53:17.768Z,16.30
2022-11-27T07:55:50.255Z,16.50
2022-11-27T07:58:22.897Z,15.10
2022-11-27T08:00:56.540Z,16.50
2022-11-27T08:03:29.325Z,17.00
2022-11-27T08:06:01.774Z,15.90
2022-11-27T08:08:35.314Z,16.60
2022-11-27T08:11:08.139Z,18.30
2022-11-27T08:13:40.650Z,16.50
2022-11-27T08:16:13.463Z,16.30
2022-11-27T08:18:46.061Z,18.20
2022-11-27T08:21:18.595Z,19.10
2022-11-27T08:23:51.409Z,17.40
2022-11-27T08:26:23.965Z,17.80
2022-11-27T08:28:58.947Z,14.70
2022-11-27T08:31:31.512Z,15.60
2022-11-27T08:34:04.027Z,16.50
2022-11-27T08:36:36.541Z,15.60
2022-11-27T08:39:09.182Z,19.70
2022-11-27T08:41:41.709Z,22.30
2022-11-27T08:44:14.209Z,21.80
2022-11-27T08:46:47.378Z,19.20
2022-11-27T08:49:20.259Z,17.70
2022-11-27T08:51:52.755Z,18.00
2022-11-27T08:54:25.387Z,19.00
2022-11-27T08:56:57.973Z,14.70
2022-11-27T08:59:30.543Z,14.30
2022-11-27T09:02:03.078Z,13.10
2022-11-27T09:04:35.643Z,12.10
2022-11-27T09:07:08.331Z,14.50
2022-11-27T09:09:42.034Z,14.10
2022-11-27T09:12:15.068Z,14.90
2022-11-27T09:14:47.488Z,12.70
2022-11-27T09:17:19.972Z,12.40
2022-11-27T09:19:52.759Z,15.40
2022-11-27T09:22:25.325Z,15.70
2022-11-27T09:24:57.790Z,14.90
2022-11-27T09:27:30.459Z,15.40
2022-11-27T09:30:02.822Z,18.00
2022-11-27T09:32:35.484Z,13.50
2022-11-27T09:35:09.144Z,12.00
2022-11-27T09:37:41.781Z,14.90
2022-11-27T09:40:19.845Z,11.40
2022-11-27T09:42:58.544Z,16.30
2022-11-27T09:45:31.715Z,15.80
2022-11-27T09:48:08.417Z,15.10
2022-11-27T09:50:50.374Z,15.50
2022-11-27T09:53:34.107Z,15.50
2022-11-27T09:56:12.632Z,13.10
2022-11-27T09:58:48.583Z,16.00
2022-11-27T10:01:35.312Z,14.40
2022-11-27T10:04:17.086Z,15.30
2022-11-27T10:07:06.389Z,16.20
2022-11-27T10:09:57.527Z,13.90
2022-11-27T10:12:37.014Z,14.00
2022-11-27T10:15:17.284Z,23.10
2022-11-27T10:17:56.713Z,19.90
2022-11-27T10:20:37.582Z,15.60
2022-11-27T10:23:22.387Z,17.00
2022-11-27T10:25:59.787Z,15.50
2022-11-27T10:28:40.024Z,13.70
2022-11-27T10:31:19.657Z,15.80
2022-11-27T10:33:57.576Z,14.70
2022-11-27T10:36:37.014Z,14.90
2022-11-27T10:39:18.620Z,15.60
2022-11-27T10:42:00.705Z,13.70
2022-11-27T10:44:37.729Z,18.90
2022-11-27T10:47:14.642Z,13.50
2022-11-27T10:49:48.343Z,12.80
2022-11-27T10:52:22.281Z,11.70
2022-11-27T10:54:59.876Z,11.30
2022-11-27T10:57:56.430Z,12.30
2022-11-27T11:00:29.191Z,10.80
2022-11-27T11:03:07.538Z,13.10
2022-11-27T11:06:04.831Z,11.70
2022-11-27T11:08:34.619Z,8.50
2022-11-27T11:11:09.455Z,11.20
2022-11-27T11:13:50.359Z,13.60
2022-11-27T11:16:33.354Z,11.20
2022-11-27T11:19:22.292Z,10.30
2022-11-27T11:21:54.922Z,10.00
2022-11-27T11:24:31.081Z,11.10
2022-11-27T11:27:11.732Z,10.30
2022-11-27T11:29:50.658Z,13.50
2022-11-27T11:32:29.959Z,11.70
2022-11-27T11:35:05.290Z,11.00
2022-11-27T11:37:40.698Z,10.70
2022-11-27T11:40:27.986Z,10.90
2022-11-27T11:43:03.829Z,11.60
2022-11-27T11:45:45.796Z,10.50
2022-11-27T11:48:26.799Z,12.70
2022-11-27T11:51:03.574Z,12.90
2022-11-27T11:53:40.167Z,13.20
2022-11-27T11:56:29.532Z,14.00
2022-11-27T11:59:05.783Z,13.40
2022-11-27T12:02:00.752Z,13.60
2022-11-27T12:05:06.308Z,13.10
2022-11-27T12:08:00.688Z,15.20
2022-11-27T12:10:41.661Z,14.00
2022-11-27T12:13:36.408Z,19.30
2022-11-27T12:16:17.791Z,14.50
2022-11-27T12:19:09.410Z,13.30
2022-11-27T12:21:51.408Z,14.30
2022-11-27T12:24:42.432Z,13.40
2022-11-27T12:27:28.450Z,41.30
2022-11-27T12:30:19.377Z,21.70
2022-11-27T12:33:16.193Z,26.50
2022-11-27T12:35:58.577Z,29.90
2022-11-27T12:38:46.485Z,22.90
2022-11-27T12:41:53.111Z,22.10
2022-11-27T12:44:34.294Z,20.20
2022-11-27T12:47:11.759Z,18.10
2022-11-27T12:49:49.652Z,14.30
2022-11-27T12:52:27.119Z,14.90
2022-11-27T12:55:10.910Z,12.90
2022-11-27T12:57:48.689Z,14.60
2022-11-27T13:00:24.818Z,13.60
2022-11-27T13:03:11.268Z,13.60
2022-11-27T13:05:50.408Z,15.70
2022-11-27T13:08:28.927Z,15.30
2022-11-27T13:11:07.917Z,12.70
2022-11-27T13:13:45.697Z,14.20
2022-11-27T13:16:25.127Z,17.20
2022-11-27T13:19:02.696Z,14.90
2022-11-27T13:21:39.634Z,13.50
2022-11-27T13:24:15.341Z,13.60
2022-11-27T13:26:53.424Z,13.60
2022-11-27T13:29:32.553Z,14.00
2022-11-27T13:32:08.115Z,18.50
2022-11-27T13:34:48.323Z,24.50
2022-11-27T13:37:34.130Z,28.10
2022-11-27T13:40:18.815Z,23.00
2022-11-27T13:42:56.166Z,29.20
2022-11-27T13:45:32.869Z,19.00
2022-11-27T13:48:20.341Z,15.70
2022-11-27T13:50:54.491Z,16.00
2022-11-27T13:53:38.074Z,16.80
2022-11-27T13:56:11.664Z,16.50
2022-11-27T13:58:45.441Z,16.50
2022-11-27T14:01:23.503Z,16.30
2022-11-27T14:04:07.290Z,14.80
2022-11-27T14:06:43.722Z,15.00
2022-11-27T14:09:16.562Z,14.80
2022-11-27T14:11:52.150Z,15.20
2022-11-27T14:14:27.711Z,17.10
2022-11-27T14:17:05.107Z,14.80
2022-11-27T14:19:44.579Z,13.90
2022-11-27T14:23:07.227Z,14.60
2022-11-27T14:25:37.491Z,14.20
2022-11-27T14:28:21.653Z,14.70
2022-11-27T14:30:58.019Z,15.20
2022-11-27T14:33:47.436Z,14.50
2022-11-27T14:36:30.901Z,18.70
2022-11-27T14:39:03.770Z,17.80
2022-11-27T14:41:36.791Z,17.50
2022-11-27T14:44:19.303Z,17.90
2022-11-27T14:46:52.502Z,18.80
2022-11-27T14:49:27.479Z,15.30
2022-11-27T14:52:09.437Z,15.30
2022-11-27T14:54:44.727Z,17.30
2022-11-27T14:57:23.118Z,16.60
2022-11-27T15:00:19.671Z,15.80
2022-11-27T15:02:53.426Z,15.10
2022-11-27T15:05:29.926Z,15.70
2022-11-27T15:08:03.648Z,15.30
2022-11-27T15:10:42.258Z,14.40
2022-11-27T15:13:26.817Z,14.90
2022-11-27T15:16:07.181Z,14.30
2022-11-27T15:21:19.398Z,12.60
2022-11-27T15:23:54.307Z,13.10
2022-11-27T15:26:41.095Z,14.90
2022-11-27T15:29:36.266Z,16.00
2022-11-27T15:32:23.711Z,14.10
2022-11-27T15:34:57.047Z,16.00
2022-11-27T15:37:34.438Z,14.80
2022-11-27T15:40:25.178Z,15.70
2022-11-27T15:42:57.976Z,17.00
2022-11-27T15:45:33.116Z,16.60
2022-11-27T15:48:05.837Z,19.30
2022-11-27T15:50:38.311Z,18.60
2022-11-27T15:53:10.891Z,19.70
2022-11-27T15:55:43.601Z,19.00
2022-11-27T15:58:16.672Z,20.20
2022-11-27T16:00:49.365Z,20.80
2022-11-27T16:03:22.578Z,18.20
2022-11-27T16:05:55.071Z,22.50
2022-11-27T16:08:27.565Z,22.70
2022-11-27T16:11:05.951Z,24.50
2022-11-27T16:13:38.655Z,37.40
2022-11-27T16:16:13.058Z,37.70
2022-11-27T16:18:46.259Z,38.10
2022-11-27T16:21:19.887Z,43.40
2022-11-27T16:23:52.494Z,40.20
2022-11-27T16:26:24.938Z,38.70
2022-11-27T16:28:57.430Z,33.80
2022-11-27T16:31:30.520Z,27.70
2022-11-27T16:34:04.650Z,26.50
2022-11-27T16:36:38.027Z,25.50
2022-11-27T16:39:10.672Z,24.90
2022-11-27T16:41:44.344Z,23.60
2022-11-27T16:44:17.829Z,22.80
2022-11-27T16:46:51.723Z,22.60
2022-11-27T16:49:24.246Z,23.20
2022-11-27T16:51:57.430Z,20.00
2022-11-27T16:54:30.055Z,22.60
2022-11-27T16:57:02.664Z,20.80
2022-11-27T16:59:38.034Z,19.60
2022-11-27T17:02:11.240Z,19.80
2022-11-27T17:04:43.997Z,18.70
2022-11-27T17:07:16.494Z,18.50
2022-11-27T17:09:49.388Z,17.50
2022-11-27T17:12:21.938Z,17.50
2022-11-27T17:14:54.488Z,18.90
2022-11-27T17:17:27.747Z,21.10
2022-11-27T17:20:00.942Z,17.30
2022-11-27T17:22:35.078Z,16.40
2022-11-27T17:25:11.303Z,19.80
2022-11-27T17:27:44.063Z,18.80
2022-11-27T17:30:17.889Z,19.50
2022-11-27T17:32:50.578Z,17.80
2022-11-27T17:35:23.061Z,17.90
2022-11-27T17:37:56.012Z,19.30
2022-11-27T17:40:30.725Z,19.20
2022-11-27T17:43:03.356Z,21.50
2022-11-27T17:45:35.893Z,23.20
2022-11-27T17:48:09.883Z,20.10
2022-11-27T17:50:42.365Z,21.50
2022-11-27T17:53:15.115Z,23.90
2022-11-27T17:55:48.014Z,26.30
2022-11-27T17:58:20.877Z,22.60
2022-11-27T18:00:53.657Z,22.00
2022-11-27T18:03:26.719Z,21.10
2022-11-27T18:06:02.824Z,25.80
2022-11-27T18:08:35.723Z,24.20
2022-11-27T18:11:13.538Z,23.70
2022-11-27T18:13:46.161Z,23.80
2022-11-27T18:16:23.890Z,21.00
2022-11-27T18:18:56.539Z,24.30
2022-11-27T18:21:29.507Z,25.20
2022-11-27T18:27:10.189Z,25.60
2022-11-27T18:29:45.645Z,23.20
2022-11-27T18:32:20.126Z,26.60
2022-11-27T18:34:55.195Z,27.70
2022-11-27T18:37:27.653Z,25.50
2022-11-27T18:40:00.071Z,32.00
2022-11-27T18:42:33.196Z,36.00
2022-11-27T18:45:20.177Z,38.90
2022-11-27T18:48:00.133Z,42.20
2022-11-27T18:50:32.984Z,41.10
2022-11-27T18:53:06.320Z,38.50
2022-11-27T18:55:39.530Z,32.30
2022-11-27T18:58:12.923Z,41.80
2022-11-27T19:00:46.104Z,38.00
2022-11-27T19:03:19.288Z,42.80
2022-11-27T19:05:51.918Z,36.70
2022-11-27T19:08:24.734Z,40.10
2022-11-27T19:11:01.017Z,33.70
2022-11-27T19:13:34.588Z,32.00
2022-11-27T19:16:13.125Z,34.00
2022-11-27T19:18:46.078Z,32.10
2022-11-27T19:21:22.411Z,31.40
2022-11-27T19:23:55.985Z,27.40
2022-11-27T19:26:30.659Z,25.00
2022-11-27T19:29:08.248Z,25.40
2022-11-27T19:31:42.223Z,27.40
2022-11-27T19:34:16.043Z,26.80
2022-11-27T19:36:49.124Z,27.10
2022-11-27T19:39:21.991Z,32.60
2022-11-27T19:41:54.650Z,26.50
2022-11-27T19:44:27.291Z,27.00
2022-11-27T19:47:00.783Z,26.60
2022-11-27T19:49:33.684Z,28.30
2022-11-27T19:52:07.165Z,24.00
2022-11-27T19:54:39.808Z,25.20
2022-11-27T19:57:13.093Z,24.20
2022-11-27T19:59:45.608Z,25.30
2022-11-27T20:02:18.652Z,22.70
2022-11-27T20:04:52.782Z,25.30
2022-11-27T20:07:25.679Z,26.10
2022-11-27T20:09:58.621Z,26.90
2022-11-27T20:12:36.346Z,24.90
2022-11-27T20:15:14.459Z,22.90
2022-11-27T20:17:47.405Z,25.30
2022-11-27T20:20:21.619Z,27.10
2022-11-27T20:22:54.291Z,27.80
2022-11-27T20:25:27.201Z,29.30
2022-11-27T20:27:59.796Z,27.00
2022-11-27T20:30:33.212Z,28.00
2022-11-27T20:33:07.920Z,30.10
2022-11-27T20:35:45.326Z,28.90
2022-11-27T20:38:19.031Z,28.80
2022-11-27T20:40:52.199Z,25.70
2022-11-27T20:43:25.268Z,23.70
2022-11-27T20:45:57.824Z,28.10
2022-11-27T20:48:30.999Z,28.90
2022-11-27T20:51:11.013Z,22.90
2022-11-27T20:53:45.235Z,25.20
2022-11-27T20:56:20.373Z,22.20
2022-11-27T20:58:53.641Z,23.60
2022-11-27T21:01:29.801Z,25.10
2022-11-27T21:04:09.320Z,29.20
2022-11-27T21:06:44.201Z,27.00
2022-11-27T21:09:17.419Z,29.90
2022-11-27T21:11:50.271Z,26.70
2022-11-27T21:14:24.342Z,23.90
2022-11-27T21:17:04.600Z,28.70
2022-11-27T21:19:38.530Z,25.70
2022-11-27T21:22:11.349Z,28.80
2022-11-27T21:24:44.026Z,26.50
2022-11-27T21:27:17.172Z,27.20
2022-11-27T21:29:49.753Z,25.80
2022-11-27T21:32:23.576Z,25.70
2022-11-27T21:34:57.082Z,25.10
2022-11-27T21:37:29.543Z,30.40
2022-11-27T21:40:02.181Z,28.20
2022-11-27T21:42:34.761Z,26.20
2022-11-27T21:45:09.109Z,25.80
2022-11-27T21:47:41.642Z,26.60
2022-11-27T21:50:15.149Z,27.60
2022-11-27T21:52:47.871Z,28.70
2022-11-27T21:55:20.953Z,27.20
2022-11-27T21:57:53.450Z,24.90
2022-11-27T22:00:26.065Z,26.70
2022-11-27T22:02:58.587Z,28.50
2022-11-27T22:05:31.253Z,22.60
2022-11-27T22:08:03.824Z,27.80
2022-11-27T22:10:40.086Z,30.20
2022-11-27T22:13:12.617Z,26.00
2022-11-27T22:15:45.164Z,28.30
2022-11-27T22:18:18.717Z,29.40
2022-11-27T22:20:51.418Z,27.10
2022-11-27T22:23:23.996Z,23.60
2022-11-27T22:25:56.810Z,31.10
2022-11-27T22:28:29.352Z,30.20
2022-11-27T22:31:03.216Z,27.50
2022-11-27T22:33:37.160Z,28.40
2022-11-27T22:36:19.587Z,26.60
2022-11-27T22:38:54.391Z,26.30
2022-11-27T22:41:29.499Z,27.10
2022-11-27T22:44:05.645Z,24.10
2022-11-27T22:46:41.153Z,19.80
2022-11-27T22:49:16.653Z,20.20
2022-11-27T22:51:49.542Z,26.90
2022-11-27T22:54:22.999Z,23.70
2022-11-27T22:56:55.527Z,24.00
2022-11-27T22:59:33.363Z,24.90
2022-11-27T23:02:08.604Z,26.60
2022-11-27T23:04:41.593Z,24.40
2022-11-27T23:07:15.344Z,27.50
2022-11-27T23:09:47.955Z,25.20
2022-11-27T23:12:20.864Z,25.30
2022-11-27T23:14:53.436Z,23.90
2022-11-27T23:17:25.896Z,25.40
2022-11-27T23:19:58.378Z,23.60
2022-11-27T23:22:30.916Z,22.40
2022-11-27T23:25:03.809Z,26.80
2022-11-27T23:27:36.285Z,25.80
2022-11-27T23:30:11.421Z,25.60
2022-11-27T23:32:44.413Z,23.90
2022-11-27T23:35:17.025Z,22.20
2022-11-27T23:37:49.557Z,25.10
2022-11-27T23:40:22.395Z,25.50
2022-11-27T23:42:55.025Z,25.40
2022-11-27T23:45:27.626Z,25.50
2022-11-27T23:48:00.200Z,21.70
2022-11-27T23:50:32.710Z,24.60
2022-11-27T23:53:05.258Z,25.20
2022-11-27T23:55:39.369Z,25.20
2022-11-27T23:58:11.954Z,22.80
